sensor_id;sensor_type;location;lat;lon;timestamp;P1;durP1;ratioP1;P2;durP2;ratioP2
357;SDS011;167;47.558;7.602;2022-08-03T00:02:25;2.83;;;1.63;;
357;SDS011;167;47.558;7.602;2022-08-03T00:04:51;1.33;;;1.03;;
357;SDS011;167;47.558;7.602;2022-08-03T00:07:17;1.27;;;1.17;;
357;SDS011;167;47.558;7.602;2022-08-03T00:09:43;1.47;;;1.27;;
357;SDS011;167;47.558;7.602;2022-08-03T00:12:09;1.57;;;1.47;;
357;SDS011;167;47.558;7.602;2022-08-03T00:14:35;1.90;;;1.80;;
357;SDS011;167;47.558;7.602;2022-08-03T00:17:01;1.43;;;1.33;;
357;SDS011;167;47.558;7.602;2022-08-03T00:19:28;1.37;;;1.30;;
357;SDS011;167;47.558;7.602;2022-08-03T00:21:54;1.57;;;1.47;;
357;SDS011;167;47.558;7.602;2022-08-03T00:24:20;1.40;;;1.30;;
357;SDS011;167;47.558;7.602;2022-08-03T00:26:46;1.67;;;1.20;;
357;SDS011;167;47.558;7.602;2022-08-03T00:29:12;1.73;;;1.63;;
357;SDS011;167;47.558;7.602;2022-08-03T00:31:38;1.50;;;1.40;;
357;SDS011;167;47.558;7.602;2022-08-03T00:34:04;1.80;;;1.70;;
357;SDS011;167;47.558;7.602;2022-08-03T00:36:30;1.63;;;1.53;;
357;SDS011;167;47.558;7.602;2022-08-03T00:38:56;1.20;;;1.20;;
357;SDS011;167;47.558;7.602;2022-08-03T00:41:22;1.40;;;1.40;;
357;SDS011;167;47.558;7.602;2022-08-03T00:43:49;1.60;;;1.50;;
357;SDS011;167;47.558;7.602;2022-08-03T00:46:15;1.50;;;1.40;;
357;SDS011;167;47.558;7.602;2022-08-03T00:48:41;1.43;;;1.43;;
357;SDS011;167;47.558;7.602;2022-08-03T00:51:07;1.60;;;1.50;;
357;SDS011;167;47.558;7.602;2022-08-03T00:53:34;1.53;;;1.50;;
357;SDS011;167;47.558;7.602;2022-08-03T00:56:00;1.37;;;1.27;;
357;SDS011;167;47.558;7.602;2022-08-03T00:58:26;1.63;;;1.20;;
357;SDS011;167;47.558;7.602;2022-08-03T01:00:52;2.47;;;1.70;;
357;SDS011;167;47.558;7.602;2022-08-03T01:03:18;2.17;;;1.93;;
357;SDS011;167;47.558;7.602;2022-08-03T01:11:20;2.30;;;2.20;;
357;SDS011;167;47.558;7.602;2022-08-03T01:13:52;1.80;;;1.70;;
357;SDS011;167;47.558;7.602;2022-08-03T01:16:26;1.90;;;1.80;;
357;SDS011;167;47.558;7.602;2022-08-03T01:21:39;1.90;;;1.80;;
357;SDS011;167;47.558;7.602;2022-08-03T01:24:33;1.90;;;1.80;;
357;SDS011;167;47.558;7.602;2022-08-03T01:27:04;2.20;;;1.87;;
357;SDS011;167;47.558;7.602;2022-08-03T01:32:07;1.73;;;1.20;;
357;SDS011;167;47.558;7.602;2022-08-03T01:34:37;1.60;;;1.50;;
357;SDS011;167;47.558;7.602;2022-08-03T01:37:04;2.30;;;1.87;;
357;SDS011;167;47.558;7.602;2022-08-03T01:39:32;1.50;;;1.50;;
357;SDS011;167;47.558;7.602;2022-08-03T01:42:03;2.17;;;1.40;;
357;SDS011;167;47.558;7.602;2022-08-03T01:44:36;1.50;;;1.40;;
357;SDS011;167;47.558;7.602;2022-08-03T01:47:03;1.60;;;1.50;;
357;SDS011;167;47.558;7.602;2022-08-03T01:49:31;1.50;;;1.50;;
357;SDS011;167;47.558;7.602;2022-08-03T01:51:58;1.73;;;1.63;;
357;SDS011;167;47.558;7.602;2022-08-03T01:54:25;1.50;;;1.40;;
357;SDS011;167;47.558;7.602;2022-08-03T01:56:51;2.40;;;1.53;;
357;SDS011;167;47.558;7.602;2022-08-03T01:59:19;1.53;;;1.50;;
357;SDS011;167;47.558;7.602;2022-08-03T02:01:46;1.63;;;1.53;;
357;SDS011;167;47.558;7.602;2022-08-03T02:04:13;1.20;;;1.20;;
357;SDS011;167;47.558;7.602;2022-08-03T02:06:42;1.73;;;1.67;;
357;SDS011;167;47.558;7.602;2022-08-03T02:09:09;2.40;;;1.53;;
357;SDS011;167;47.558;7.602;2022-08-03T02:11:36;1.77;;;1.67;;
357;SDS011;167;47.558;7.602;2022-08-03T02:14:02;1.27;;;1.20;;
357;SDS011;167;47.558;7.602;2022-08-03T02:16:30;1.40;;;1.40;;
357;SDS011;167;47.558;7.602;2022-08-03T02:18:56;1.83;;;1.73;;
357;SDS011;167;47.558;7.602;2022-08-03T02:21:23;1.43;;;1.40;;
357;SDS011;167;47.558;7.602;2022-08-03T02:23:49;1.20;;;1.20;;
357;SDS011;167;47.558;7.602;2022-08-03T02:26:16;1.50;;;1.50;;
357;SDS011;167;47.558;7.602;2022-08-03T02:28:45;1.70;;;1.60;;
357;SDS011;167;47.558;7.602;2022-08-03T02:31:14;3.63;;;1.90;;
357;SDS011;167;47.558;7.602;2022-08-03T02:33:48;1.67;;;1.57;;
357;SDS011;167;47.558;7.602;2022-08-03T02:36:15;1.60;;;1.60;;
357;SDS011;167;47.558;7.602;2022-08-03T02:38:43;1.87;;;1.67;;
357;SDS011;167;47.558;7.602;2022-08-03T02:41:14;1.80;;;1.70;;
357;SDS011;167;47.558;7.602;2022-08-03T02:43:42;2.00;;;1.90;;
357;SDS011;167;47.558;7.602;2022-08-03T02:46:10;1.80;;;1.80;;
357;SDS011;167;47.558;7.602;2022-08-03T02:48:38;2.13;;;2.03;;
357;SDS011;167;47.558;7.602;2022-08-03T02:51:06;1.67;;;1.60;;
357;SDS011;167;47.558;7.602;2022-08-03T02:53:32;2.00;;;1.90;;
357;SDS011;167;47.558;7.602;2022-08-03T02:55:59;2.17;;;1.90;;
357;SDS011;167;47.558;7.602;2022-08-03T02:58:26;1.87;;;1.77;;
357;SDS011;167;47.558;7.602;2022-08-03T03:00:52;1.67;;;1.57;;
357;SDS011;167;47.558;7.602;2022-08-03T03:03:19;1.90;;;1.60;;
357;SDS011;167;47.558;7.602;2022-08-03T03:05:45;2.10;;;1.67;;
357;SDS011;167;47.558;7.602;2022-08-03T03:08:12;2.73;;;1.97;;
357;SDS011;167;47.558;7.602;2022-08-03T03:10:38;1.87;;;1.77;;
357;SDS011;167;47.558;7.602;2022-08-03T03:13:05;1.73;;;1.63;;
357;SDS011;167;47.558;7.602;2022-08-03T03:15:32;1.77;;;1.67;;
357;SDS011;167;47.558;7.602;2022-08-03T03:17:59;3.20;;;2.37;;
357;SDS011;167;47.558;7.602;2022-08-03T03:20:26;3.90;;;2.43;;
357;SDS011;167;47.558;7.602;2022-08-03T03:22:53;2.13;;;1.87;;
357;SDS011;167;47.558;7.602;2022-08-03T03:25:19;2.10;;;2.00;;
357;SDS011;167;47.558;7.602;2022-08-03T03:27:46;1.60;;;1.60;;
357;SDS011;167;47.558;7.602;2022-08-03T03:30:12;2.40;;;2.13;;
357;SDS011;167;47.558;7.602;2022-08-03T03:32:39;1.80;;;1.70;;
357;SDS011;167;47.558;7.602;2022-08-03T03:35:05;2.97;;;2.47;;
357;SDS011;167;47.558;7.602;2022-08-03T03:37:32;2.47;;;2.37;;
357;SDS011;167;47.558;7.602;2022-08-03T03:39:58;1.90;;;1.80;;
357;SDS011;167;47.558;7.602;2022-08-03T03:42:24;1.87;;;1.77;;
357;SDS011;167;47.558;7.602;2022-08-03T03:44:50;4.13;;;2.43;;
357;SDS011;167;47.558;7.602;2022-08-03T03:47:16;2.63;;;2.33;;
357;SDS011;167;47.558;7.602;2022-08-03T03:49:42;1.43;;;1.43;;
357;SDS011;167;47.558;7.602;2022-08-03T03:52:09;2.30;;;2.10;;
357;SDS011;167;47.558;7.602;2022-08-03T03:54:42;2.33;;;2.23;;
357;SDS011;167;47.558;7.602;2022-08-03T03:57:09;2.60;;;2.50;;
357;SDS011;167;47.558;7.602;2022-08-03T03:59:38;2.00;;;1.90;;
357;SDS011;167;47.558;7.602;2022-08-03T04:02:05;2.40;;;2.20;;
357;SDS011;167;47.558;7.602;2022-08-03T04:04:32;2.77;;;2.57;;
357;SDS011;167;47.558;7.602;2022-08-03T04:07:17;2.40;;;2.30;;
357;SDS011;167;47.558;7.602;2022-08-03T04:10:02;2.30;;;2.20;;
357;SDS011;167;47.558;7.602;2022-08-03T04:12:49;2.77;;;2.57;;
357;SDS011;167;47.558;7.602;2022-08-03T04:15:16;3.63;;;2.87;;
357;SDS011;167;47.558;7.602;2022-08-03T04:17:43;3.03;;;2.67;;
357;SDS011;167;47.558;7.602;2022-08-03T04:20:10;3.00;;;2.80;;
357;SDS011;167;47.558;7.602;2022-08-03T04:22:37;3.13;;;2.93;;
357;SDS011;167;47.558;7.602;2022-08-03T04:25:04;4.57;;;4.17;;
357;SDS011;167;47.558;7.602;2022-08-03T04:27:33;3.03;;;2.83;;
357;SDS011;167;47.558;7.602;2022-08-03T04:30:02;3.50;;;2.93;;
357;SDS011;167;47.558;7.602;2022-08-03T04:32:28;4.70;;;3.10;;
357;SDS011;167;47.558;7.602;2022-08-03T04:34:55;3.07;;;2.87;;
357;SDS011;167;47.558;7.602;2022-08-03T04:40:02;2.80;;;2.60;;
357;SDS011;167;47.558;7.602;2022-08-03T04:42:30;3.37;;;3.17;;
357;SDS011;167;47.558;7.602;2022-08-03T04:44:58;3.70;;;2.70;;
357;SDS011;167;47.558;7.602;2022-08-03T04:47:24;3.83;;;3.10;;
357;SDS011;167;47.558;7.602;2022-08-03T04:49:50;2.30;;;2.20;;
357;SDS011;167;47.558;7.602;2022-08-03T04:52:17;2.87;;;2.60;;
357;SDS011;167;47.558;7.602;2022-08-03T04:54:43;3.00;;;2.80;;
357;SDS011;167;47.558;7.602;2022-08-03T04:57:10;2.93;;;2.60;;
357;SDS011;167;47.558;7.602;2022-08-03T04:59:36;2.93;;;2.73;;
357;SDS011;167;47.558;7.602;2022-08-03T05:02:02;4.50;;;2.87;;
357;SDS011;167;47.558;7.602;2022-08-03T05:04:29;3.07;;;2.73;;
357;SDS011;167;47.558;7.602;2022-08-03T05:06:55;2.60;;;2.20;;
357;SDS011;167;47.558;7.602;2022-08-03T05:09:21;4.93;;;2.80;;
357;SDS011;167;47.558;7.602;2022-08-03T05:11:47;2.53;;;2.33;;
357;SDS011;167;47.558;7.602;2022-08-03T05:14:13;2.57;;;2.40;;
357;SDS011;167;47.558;7.602;2022-08-03T05:16:39;2.30;;;2.17;;
357;SDS011;167;47.558;7.602;2022-08-03T05:19:05;2.63;;;2.53;;
357;SDS011;167;47.558;7.602;2022-08-03T05:21:31;3.30;;;3.00;;
357;SDS011;167;47.558;7.602;2022-08-03T05:23:57;2.80;;;2.60;;
357;SDS011;167;47.558;7.602;2022-08-03T05:26:23;2.93;;;2.67;;
357;SDS011;167;47.558;7.602;2022-08-03T05:28:49;4.20;;;2.93;;
357;SDS011;167;47.558;7.602;2022-08-03T05:31:17;3.70;;;3.40;;
357;SDS011;167;47.558;7.602;2022-08-03T05:33:43;3.40;;;3.10;;
357;SDS011;167;47.558;7.602;2022-08-03T05:36:09;5.00;;;3.43;;
357;SDS011;167;47.558;7.602;2022-08-03T05:38:35;3.57;;;3.00;;
357;SDS011;167;47.558;7.602;2022-08-03T05:41:05;2.90;;;2.80;;
357;SDS011;167;47.558;7.602;2022-08-03T05:43:31;3.50;;;3.30;;
357;SDS011;167;47.558;7.602;2022-08-03T05:45:57;3.40;;;3.20;;
357;SDS011;167;47.558;7.602;2022-08-03T05:48:25;3.47;;;2.90;;
357;SDS011;167;47.558;7.602;2022-08-03T05:50:51;2.93;;;2.70;;
357;SDS011;167;47.558;7.602;2022-08-03T05:53:17;5.67;;;3.40;;
357;SDS011;167;47.558;7.602;2022-08-03T05:55:43;3.03;;;2.83;;
357;SDS011;167;47.558;7.602;2022-08-03T05:58:09;3.07;;;2.87;;
357;SDS011;167;47.558;7.602;2022-08-03T06:00:35;3.37;;;3.17;;
357;SDS011;167;47.558;7.602;2022-08-03T06:03:01;3.40;;;3.10;;
357;SDS011;167;47.558;7.602;2022-08-03T06:05:27;3.67;;;3.30;;
357;SDS011;167;47.558;7.602;2022-08-03T06:07:53;3.70;;;3.50;;
357;SDS011;167;47.558;7.602;2022-08-03T06:10:19;3.33;;;3.07;;
357;SDS011;167;47.558;7.602;2022-08-03T06:12:45;3.40;;;3.10;;
357;SDS011;167;47.558;7.602;2022-08-03T06:15:13;3.30;;;3.00;;
357;SDS011;167;47.558;7.602;2022-08-03T06:17:49;5.33;;;2.83;;
357;SDS011;167;47.558;7.602;2022-08-03T06:20:16;3.30;;;3.00;;
357;SDS011;167;47.558;7.602;2022-08-03T06:22:42;3.07;;;2.93;;
357;SDS011;167;47.558;7.602;2022-08-03T06:25:08;4.37;;;2.90;;
357;SDS011;167;47.558;7.602;2022-08-03T06:27:34;2.80;;;2.60;;
357;SDS011;167;47.558;7.602;2022-08-03T06:30:04;2.67;;;2.47;;
357;SDS011;167;47.558;7.602;2022-08-03T06:32:30;3.10;;;2.87;;
357;SDS011;167;47.558;7.602;2022-08-03T06:34:56;3.50;;;2.77;;
357;SDS011;167;47.558;7.602;2022-08-03T06:37:22;3.00;;;2.80;;
357;SDS011;167;47.558;7.602;2022-08-03T06:39:48;2.83;;;2.63;;
357;SDS011;167;47.558;7.602;2022-08-03T06:42:14;3.33;;;3.03;;
357;SDS011;167;47.558;7.602;2022-08-03T06:44:40;3.70;;;3.40;;
357;SDS011;167;47.558;7.602;2022-08-03T06:47:06;8.57;;;3.03;;
357;SDS011;167;47.558;7.602;2022-08-03T06:49:32;2.93;;;2.73;;
357;SDS011;167;47.558;7.602;2022-08-03T06:51:58;2.87;;;2.67;;
357;SDS011;167;47.558;7.602;2022-08-03T06:54:24;4.20;;;3.37;;
357;SDS011;167;47.558;7.602;2022-08-03T06:56:50;3.40;;;3.10;;
357;SDS011;167;47.558;7.602;2022-08-03T06:59:16;2.80;;;2.70;;
357;SDS011;167;47.558;7.602;2022-08-03T07:01:42;3.30;;;2.47;;
357;SDS011;167;47.558;7.602;2022-08-03T07:04:08;3.40;;;3.10;;
357;SDS011;167;47.558;7.602;2022-08-03T07:06:36;4.20;;;2.80;;
357;SDS011;167;47.558;7.602;2022-08-03T07:09:02;2.27;;;2.17;;
357;SDS011;167;47.558;7.602;2022-08-03T07:11:28;2.23;;;2.13;;
357;SDS011;167;47.558;7.602;2022-08-03T07:13:54;4.53;;;2.47;;
357;SDS011;167;47.558;7.602;2022-08-03T07:16:20;4.03;;;2.60;;
357;SDS011;167;47.558;7.602;2022-08-03T07:18:46;3.67;;;2.67;;
357;SDS011;167;47.558;7.602;2022-08-03T07:21:12;3.40;;;2.13;;
357;SDS011;167;47.558;7.602;2022-08-03T07:23:40;3.07;;;1.90;;
357;SDS011;167;47.558;7.602;2022-08-03T07:26:06;2.07;;;1.87;;
357;SDS011;167;47.558;7.602;2022-08-03T07:28:32;3.30;;;2.00;;
357;SDS011;167;47.558;7.602;2022-08-03T07:30:58;1.90;;;1.80;;
357;SDS011;167;47.558;7.602;2022-08-03T07:33:24;2.23;;;2.13;;
357;SDS011;167;47.558;7.602;2022-08-03T07:35:50;1.93;;;1.87;;
357;SDS011;167;47.558;7.602;2022-08-03T07:38:16;1.97;;;1.87;;
357;SDS011;167;47.558;7.602;2022-08-03T07:40:42;1.27;;;1.27;;
357;SDS011;167;47.558;7.602;2022-08-03T07:43:08;1.53;;;1.40;;
357;SDS011;167;47.558;7.602;2022-08-03T07:45:34;1.27;;;1.27;;
357;SDS011;167;47.558;7.602;2022-08-03T07:48:00;2.07;;;1.60;;
357;SDS011;167;47.558;7.602;2022-08-03T07:50:26;1.50;;;1.50;;
357;SDS011;167;47.558;7.602;2022-08-03T07:52:52;1.83;;;1.70;;
357;SDS011;167;47.558;7.602;2022-08-03T07:55:23;1.50;;;1.40;;
357;SDS011;167;47.558;7.602;2022-08-03T07:58:06;1.60;;;1.50;;
357;SDS011;167;47.558;7.602;2022-08-03T08:00:33;2.63;;;1.70;;
357;SDS011;167;47.558;7.602;2022-08-03T08:03:00;1.90;;;1.80;;
357;SDS011;167;47.558;7.602;2022-08-03T08:05:26;1.73;;;1.63;;
357;SDS011;167;47.558;7.602;2022-08-03T08:07:53;2.90;;;2.03;;
357;SDS011;167;47.558;7.602;2022-08-03T08:10:19;1.63;;;1.53;;
357;SDS011;167;47.558;7.602;2022-08-03T08:12:45;3.90;;;3.70;;
357;SDS011;167;47.558;7.602;2022-08-03T08:15:12;1.97;;;1.83;;
357;SDS011;167;47.558;7.602;2022-08-03T08:17:47;1.90;;;1.80;;
357;SDS011;167;47.558;7.602;2022-08-03T08:20:20;1.23;;;1.23;;
357;SDS011;167;47.558;7.602;2022-08-03T08:22:47;1.60;;;1.50;;
357;SDS011;167;47.558;7.602;2022-08-03T08:25:13;2.10;;;1.10;;
357;SDS011;167;47.558;7.602;2022-08-03T08:27:47;1.50;;;1.33;;
357;SDS011;167;47.558;7.602;2022-08-03T08:30:14;2.67;;;1.43;;
357;SDS011;167;47.558;7.602;2022-08-03T08:32:40;2.17;;;1.60;;
357;SDS011;167;47.558;7.602;2022-08-03T08:35:07;1.10;;;1.10;;
357;SDS011;167;47.558;7.602;2022-08-03T08:37:34;1.37;;;1.20;;
357;SDS011;167;47.558;7.602;2022-08-03T08:40:00;1.70;;;1.20;;
357;SDS011;167;47.558;7.602;2022-08-03T08:42:26;1.50;;;1.40;;
357;SDS011;167;47.558;7.602;2022-08-03T08:44:53;1.20;;;1.20;;
357;SDS011;167;47.558;7.602;2022-08-03T08:47:22;1.23;;;1.23;;
357;SDS011;167;47.558;7.602;2022-08-03T08:49:50;1.20;;;1.20;;
357;SDS011;167;47.558;7.602;2022-08-03T08:52:18;1.53;;;1.20;;
357;SDS011;167;47.558;7.602;2022-08-03T08:54:44;1.00;;;1.00;;
357;SDS011;167;47.558;7.602;2022-08-03T08:57:10;1.55;;;1.40;;
357;SDS011;167;47.558;7.602;2022-08-03T08:59:36;1.00;;;1.00;;
357;SDS011;167;47.558;7.602;2022-08-03T09:02:02;1.53;;;1.43;;
357;SDS011;167;47.558;7.602;2022-08-03T09:04:29;1.33;;;1.10;;
357;SDS011;167;47.558;7.602;2022-08-03T09:06:55;0.75;;;0.73;;
357;SDS011;167;47.558;7.602;2022-08-03T09:09:21;0.80;;;0.80;;
357;SDS011;167;47.558;7.602;2022-08-03T09:11:48;3.22;;;1.20;;
357;SDS011;167;47.558;7.602;2022-08-03T09:14:14;1.08;;;1.08;;
357;SDS011;167;47.558;7.602;2022-08-03T09:16:54;0.70;;;0.70;;
357;SDS011;167;47.558;7.602;2022-08-03T09:19:23;0.88;;;0.88;;
357;SDS011;167;47.558;7.602;2022-08-03T09:22:06;0.80;;;0.80;;
357;SDS011;167;47.558;7.602;2022-08-03T09:24:33;0.98;;;0.98;;
357;SDS011;167;47.558;7.602;2022-08-03T09:26:59;0.80;;;0.80;;
357;SDS011;167;47.558;7.602;2022-08-03T09:29:25;1.00;;;1.00;;
357;SDS011;167;47.558;7.602;2022-08-03T09:31:58;1.83;;;1.60;;
357;SDS011;167;47.558;7.602;2022-08-03T09:34:25;2.13;;;1.98;;
357;SDS011;167;47.558;7.602;2022-08-03T09:36:54;1.92;;;1.92;;
357;SDS011;167;47.558;7.602;2022-08-03T09:39:22;1.73;;;1.73;;
357;SDS011;167;47.558;7.602;2022-08-03T09:44:33;1.02;;;1.02;;
357;SDS011;167;47.558;7.602;2022-08-03T09:47:00;1.17;;;1.17;;
357;SDS011;167;47.558;7.602;2022-08-03T09:49:26;0.90;;;0.90;;
357;SDS011;167;47.558;7.602;2022-08-03T09:51:53;1.65;;;1.65;;
357;SDS011;167;47.558;7.602;2022-08-03T09:54:29;1.10;;;1.10;;
357;SDS011;167;47.558;7.602;2022-08-03T09:56:55;1.65;;;1.65;;
357;SDS011;167;47.558;7.602;2022-08-03T09:59:26;1.55;;;1.55;;
357;SDS011;167;47.558;7.602;2022-08-03T10:01:52;1.45;;;1.45;;
357;SDS011;167;47.558;7.602;2022-08-03T10:04:19;1.52;;;1.52;;
357;SDS011;167;47.558;7.602;2022-08-03T10:07:00;1.80;;;1.70;;
357;SDS011;167;47.558;7.602;2022-08-03T10:09:26;1.70;;;1.70;;
357;SDS011;167;47.558;7.602;2022-08-03T10:11:52;1.67;;;1.50;;
357;SDS011;167;47.558;7.602;2022-08-03T10:14:18;2.10;;;2.10;;
357;SDS011;167;47.558;7.602;2022-08-03T10:16:46;1.35;;;1.35;;
357;SDS011;167;47.558;7.602;2022-08-03T10:19:12;2.10;;;2.10;;
357;SDS011;167;47.558;7.602;2022-08-03T10:21:40;17.13;;;6.70;;
357;SDS011;167;47.558;7.602;2022-08-03T10:24:07;13.93;;;5.25;;
357;SDS011;167;47.558;7.602;2022-08-03T10:26:35;1.10;;;1.00;;
357;SDS011;167;47.558;7.602;2022-08-03T10:29:03;1.05;;;1.05;;
357;SDS011;167;47.558;7.602;2022-08-03T10:31:38;1.35;;;1.25;;
357;SDS011;167;47.558;7.602;2022-08-03T10:34:06;3.40;;;3.10;;
357;SDS011;167;47.558;7.602;2022-08-03T10:36:33;1.40;;;1.40;;
357;SDS011;167;47.558;7.602;2022-08-03T10:39:02;3.03;;;2.83;;
357;SDS011;167;47.558;7.602;2022-08-03T10:41:34;2.45;;;2.35;;
357;SDS011;167;47.558;7.602;2022-08-03T10:44:08;2.78;;;2.60;;
357;SDS011;167;47.558;7.602;2022-08-03T10:46:34;2.17;;;2.07;;
357;SDS011;167;47.558;7.602;2022-08-03T10:49:01;1.40;;;1.20;;
357;SDS011;167;47.558;7.602;2022-08-03T10:51:28;0.90;;;0.90;;
357;SDS011;167;47.558;7.602;2022-08-03T10:53:57;2.57;;;1.20;;
357;SDS011;167;47.558;7.602;2022-08-03T10:59:18;1.10;;;1.10;;
357;SDS011;167;47.558;7.602;2022-08-03T11:04:14;0.77;;;0.70;;
357;SDS011;167;47.558;7.602;2022-08-03T11:06:41;0.90;;;0.90;;
357;SDS011;167;47.558;7.602;2022-08-03T11:11:36;0.90;;;0.90;;
357;SDS011;167;47.558;7.602;2022-08-03T11:14:07;1.00;;;1.00;;
357;SDS011;167;47.558;7.602;2022-08-03T11:16:34;1.20;;;0.88;;
357;SDS011;167;47.558;7.602;2022-08-03T11:19:02;0.90;;;0.90;;
357;SDS011;167;47.558;7.602;2022-08-03T11:29:55;0.80;;;0.80;;
357;SDS011;167;47.558;7.602;2022-08-03T11:35:08;0.80;;;0.80;;
357;SDS011;167;47.558;7.602;2022-08-03T11:37:34;0.77;;;0.77;;
357;SDS011;167;47.558;7.602;2022-08-03T11:40:01;0.70;;;0.70;;
357;SDS011;167;47.558;7.602;2022-08-03T11:44:56;0.82;;;0.55;;
357;SDS011;167;47.558;7.602;2022-08-03T11:47:24;1.50;;;0.73;;
357;SDS011;167;47.558;7.602;2022-08-03T11:49:53;1.10;;;0.80;;
357;SDS011;167;47.558;7.602;2022-08-03T11:52:19;0.60;;;0.60;;
357;SDS011;167;47.558;7.602;2022-08-03T11:54:45;0.90;;;0.45;;
357;SDS011;167;47.558;7.602;2022-08-03T11:57:27;0.57;;;0.57;;
357;SDS011;167;47.558;7.602;2022-08-03T11:59:53;0.50;;;0.50;;
357;SDS011;167;47.558;7.602;2022-08-03T12:02:19;0.40;;;0.40;;
357;SDS011;167;47.558;7.602;2022-08-03T12:04:52;0.40;;;0.40;;
357;SDS011;167;47.558;7.602;2022-08-03T12:07:22;0.50;;;0.50;;
357;SDS011;167;47.558;7.602;2022-08-03T12:12:59;0.60;;;0.60;;
357;SDS011;167;47.558;7.602;2022-08-03T12:15:26;0.50;;;0.50;;
357;SDS011;167;47.558;7.602;2022-08-03T12:17:53;0.60;;;0.60;;
357;SDS011;167;47.558;7.602;2022-08-03T12:20:20;0.82;;;0.82;;
357;SDS011;167;47.558;7.602;2022-08-03T12:22:46;0.40;;;0.40;;
357;SDS011;167;47.558;7.602;2022-08-03T12:25:19;0.70;;;0.70;;
357;SDS011;167;47.558;7.602;2022-08-03T12:27:46;0.60;;;0.60;;
357;SDS011;167;47.558;7.602;2022-08-03T12:30:12;0.50;;;0.50;;
357;SDS011;167;47.558;7.602;2022-08-03T12:32:38;1.08;;;1.08;;
357;SDS011;167;47.558;7.602;2022-08-03T12:35:04;0.70;;;0.70;;
357;SDS011;167;47.558;7.602;2022-08-03T12:37:30;0.52;;;0.52;;
357;SDS011;167;47.558;7.602;2022-08-03T12:39:57;0.77;;;0.75;;
357;SDS011;167;47.558;7.602;2022-08-03T12:42:35;0.70;;;0.70;;
357;SDS011;167;47.558;7.602;2022-08-03T12:45:24;0.90;;;0.90;;
357;SDS011;167;47.558;7.602;2022-08-03T12:48:00;0.60;;;0.60;;
357;SDS011;167;47.558;7.602;2022-08-03T12:50:30;0.70;;;0.70;;
357;SDS011;167;47.558;7.602;2022-08-03T12:52:57;0.60;;;0.60;;
357;SDS011;167;47.558;7.602;2022-08-03T12:55:23;0.73;;;0.73;;
357;SDS011;167;47.558;7.602;2022-08-03T12:57:51;0.80;;;0.80;;
357;SDS011;167;47.558;7.602;2022-08-03T13:00:17;1.43;;;0.80;;
357;SDS011;167;47.558;7.602;2022-08-03T13:02:44;0.80;;;0.80;;
357;SDS011;167;47.558;7.602;2022-08-03T13:05:11;0.60;;;0.60;;
357;SDS011;167;47.558;7.602;2022-08-03T13:07:43;0.93;;;0.87;;
357;SDS011;167;47.558;7.602;2022-08-03T13:10:10;1.83;;;0.70;;
357;SDS011;167;47.558;7.602;2022-08-03T13:12:49;0.70;;;0.70;;
357;SDS011;167;47.558;7.602;2022-08-03T13:15:15;0.70;;;0.70;;
357;SDS011;167;47.558;7.602;2022-08-03T13:17:41;0.57;;;0.57;;
357;SDS011;167;47.558;7.602;2022-08-03T13:20:07;0.80;;;0.80;;
357;SDS011;167;47.558;7.602;2022-08-03T13:22:33;0.60;;;0.60;;
357;SDS011;167;47.558;7.602;2022-08-03T13:25:00;0.63;;;0.63;;
357;SDS011;167;47.558;7.602;2022-08-03T13:27:27;0.67;;;0.67;;
357;SDS011;167;47.558;7.602;2022-08-03T13:29:53;1.30;;;0.90;;
357;SDS011;167;47.558;7.602;2022-08-03T13:32:19;0.70;;;0.70;;
357;SDS011;167;47.558;7.602;2022-08-03T13:34:46;0.60;;;0.60;;
357;SDS011;167;47.558;7.602;2022-08-03T13:37:12;0.63;;;0.63;;
357;SDS011;167;47.558;7.602;2022-08-03T13:39:38;0.80;;;0.80;;
357;SDS011;167;47.558;7.602;2022-08-03T13:42:04;0.70;;;0.70;;
357;SDS011;167;47.558;7.602;2022-08-03T13:44:31;0.60;;;0.60;;
357;SDS011;167;47.558;7.602;2022-08-03T13:46:57;0.87;;;0.87;;
357;SDS011;167;47.558;7.602;2022-08-03T13:49:24;0.83;;;0.63;;
357;SDS011;167;47.558;7.602;2022-08-03T13:51:50;1.20;;;1.00;;
357;SDS011;167;47.558;7.602;2022-08-03T13:54:17;1.53;;;0.80;;
357;SDS011;167;47.558;7.602;2022-08-03T13:56:46;0.70;;;0.70;;
357;SDS011;167;47.558;7.602;2022-08-03T13:59:17;0.83;;;0.60;;
357;SDS011;167;47.558;7.602;2022-08-03T14:01:44;2.53;;;0.80;;
357;SDS011;167;47.558;7.602;2022-08-03T14:04:10;0.87;;;0.87;;
357;SDS011;167;47.558;7.602;2022-08-03T14:06:36;1.07;;;0.70;;
357;SDS011;167;47.558;7.602;2022-08-03T14:09:02;1.10;;;1.00;;
357;SDS011;167;47.558;7.602;2022-08-03T14:11:28;0.90;;;0.90;;
357;SDS011;167;47.558;7.602;2022-08-03T14:13:55;0.60;;;0.60;;
357;SDS011;167;47.558;7.602;2022-08-03T14:16:21;1.13;;;0.80;;
357;SDS011;167;47.558;7.602;2022-08-03T14:18:47;1.00;;;1.00;;
357;SDS011;167;47.558;7.602;2022-08-03T14:21:13;0.60;;;0.60;;
357;SDS011;167;47.558;7.602;2022-08-03T14:23:39;0.80;;;0.80;;
357;SDS011;167;47.558;7.602;2022-08-03T14:26:05;0.77;;;0.77;;
357;SDS011;167;47.558;7.602;2022-08-03T14:28:32;0.97;;;0.97;;
357;SDS011;167;47.558;7.602;2022-08-03T14:30:58;0.70;;;0.70;;
357;SDS011;167;47.558;7.602;2022-08-03T14:33:24;0.80;;;0.80;;
357;SDS011;167;47.558;7.602;2022-08-03T14:35:52;1.23;;;0.80;;
357;SDS011;167;47.558;7.602;2022-08-03T14:38:19;2.20;;;0.80;;
357;SDS011;167;47.558;7.602;2022-08-03T14:40:45;1.13;;;0.90;;
357;SDS011;167;47.558;7.602;2022-08-03T14:43:11;0.83;;;0.83;;
357;SDS011;167;47.558;7.602;2022-08-03T14:45:38;1.10;;;1.10;;
357;SDS011;167;47.558;7.602;2022-08-03T14:48:04;1.00;;;1.00;;
357;SDS011;167;47.558;7.602;2022-08-03T14:50:30;0.90;;;0.90;;
357;SDS011;167;47.558;7.602;2022-08-03T14:52:56;1.03;;;1.00;;
357;SDS011;167;47.558;7.602;2022-08-03T14:55:22;1.20;;;1.10;;
357;SDS011;167;47.558;7.602;2022-08-03T14:57:48;0.90;;;0.90;;
357;SDS011;167;47.558;7.602;2022-08-03T15:00:14;1.03;;;1.03;;
357;SDS011;167;47.558;7.602;2022-08-03T15:02:40;0.93;;;0.93;;
357;SDS011;167;47.558;7.602;2022-08-03T15:05:07;0.90;;;0.90;;
357;SDS011;167;47.558;7.602;2022-08-03T15:07:34;0.83;;;0.83;;
357;SDS011;167;47.558;7.602;2022-08-03T15:10:00;1.37;;;1.03;;
357;SDS011;167;47.558;7.602;2022-08-03T15:12:26;1.10;;;1.10;;
357;SDS011;167;47.558;7.602;2022-08-03T15:14:52;0.97;;;0.97;;
357;SDS011;167;47.558;7.602;2022-08-03T15:17:18;1.00;;;1.00;;
357;SDS011;167;47.558;7.602;2022-08-03T15:19:44;0.77;;;0.77;;
357;SDS011;167;47.558;7.602;2022-08-03T15:22:10;1.30;;;1.30;;
357;SDS011;167;47.558;7.602;2022-08-03T15:24:39;1.10;;;1.10;;
357;SDS011;167;47.558;7.602;2022-08-03T15:27:05;0.93;;;0.93;;
357;SDS011;167;47.558;7.602;2022-08-03T15:29:31;1.27;;;1.20;;
357;SDS011;167;47.558;7.602;2022-08-03T15:31:57;1.00;;;1.00;;
357;SDS011;167;47.558;7.602;2022-08-03T15:34:23;1.07;;;1.07;;
357;SDS011;167;47.558;7.602;2022-08-03T15:36:49;1.10;;;1.00;;
357;SDS011;167;47.558;7.602;2022-08-03T15:39:15;1.30;;;1.20;;
357;SDS011;167;47.558;7.602;2022-08-03T15:41:41;1.03;;;1.03;;
357;SDS011;167;47.558;7.602;2022-08-03T15:44:07;2.00;;;1.90;;
357;SDS011;167;47.558;7.602;2022-08-03T15:46:33;1.60;;;1.47;;
357;SDS011;167;47.558;7.602;2022-08-03T15:48:59;1.00;;;1.00;;
357;SDS011;167;47.558;7.602;2022-08-03T15:51:25;5.57;;;1.10;;
357;SDS011;167;47.558;7.602;2022-08-03T15:53:51;0.90;;;0.90;;
357;SDS011;167;47.558;7.602;2022-08-03T15:56:17;0.97;;;0.97;;
357;SDS011;167;47.558;7.602;2022-08-03T15:58:43;1.40;;;1.30;;
357;SDS011;167;47.558;7.602;2022-08-03T16:01:09;1.20;;;1.10;;
357;SDS011;167;47.558;7.602;2022-08-03T16:03:35;1.83;;;1.73;;
357;SDS011;167;47.558;7.602;2022-08-03T16:06:02;0.90;;;0.90;;
357;SDS011;167;47.558;7.602;2022-08-03T16:08:29;1.30;;;1.20;;
357;SDS011;167;47.558;7.602;2022-08-03T16:10:55;0.80;;;0.80;;
357;SDS011;167;47.558;7.602;2022-08-03T16:13:21;1.00;;;1.00;;
357;SDS011;167;47.558;7.602;2022-08-03T16:15:47;1.33;;;1.33;;
357;SDS011;167;47.558;7.602;2022-08-03T16:18:14;1.10;;;1.10;;
357;SDS011;167;47.558;7.602;2022-08-03T16:20:40;1.00;;;1.00;;
357;SDS011;167;47.558;7.602;2022-08-03T16:23:05;1.30;;;1.20;;
357;SDS011;167;47.558;7.602;2022-08-03T16:25:31;1.10;;;1.10;;
357;SDS011;167;47.558;7.602;2022-08-03T16:27:57;1.13;;;1.00;;